Time;durP1;ratioP1;P1;durP2;ratioP2;P2;SDS_P1;SDS_P2;PMS_P1;PMS_P2;Temp;Humidity;BMP_temperature;BMP_pressure;BME280_temperature;BME280_humidity;BME280_pressure;Samples;Min_cycle;Max_cycle;Signal;HPM_P1;HPM_P2
2023/08/16 00:02:02;;;;;;;6.25;3.25;;;20.00;99.90;;;;;;5030471;28;20482;-49
2023/08/16 00:04:28;;;;;;;7.05;3.28;;;20.00;99.90;;;;;;5030641;28;20032;-49
2023/08/16 00:06:54;;;;;;;6.00;3.13;;;20.00;99.90;;;;;;5030493;28;20029;-53
2023/08/16 00:09:20;;;;;;;4.97;2.80;;;20.00;99.90;;;;;;5029883;28;20037;-50
2023/08/16 00:11:46;;;;;;;6.65;3.10;;;19.90;99.90;;;;;;5030579;28;20030;-48
2023/08/16 00:14:12;;;;;;;7.10;3.20;;;19.90;99.90;;;;;;5030401;28;20030;-51
2023/08/16 00:16:38;;;;;;;8.23;3.78;;;19.90;99.90;;;;;;5030368;28;20398;-50
2023/08/16 00:19:04;;;;;;;7.10;2.65;;;19.90;99.90;;;;;;5030770;28;20048;-49
2023/08/16 00:21:30;;;;;;;9.48;3.30;;;19.90;99.90;;;;;;5030463;28;20113;-50
2023/08/16 00:23:55;;;;;;;9.35;3.63;;;19.90;99.90;;;;;;5012845;28;20038;-50
2023/08/16 00:26:21;;;;;;;5.38;2.88;;;19.90;99.90;;;;;;5030482;28;20075;-53
2023/08/16 00:28:48;;;;;;;8.10;2.95;;;19.90;99.90;;;;;;5030591;28;20025;-52
2023/08/16 00:31:14;;;;;;;5.43;2.85;;;19.90;99.90;;;;;;5030599;28;20100;-52
2023/08/16 00:33:40;;;;;;;5.90;2.67;;;19.90;99.90;;;;;;5012776;28;20029;-53
2023/08/16 00:36:07;;;;;;;5.22;2.80;;;19.90;99.90;;;;;;5012598;28;20040;-49
2023/08/16 00:38:34;;;;;;;5.75;3.08;;;19.80;99.90;;;;;;5013071;28;20496;-53
2023/08/16 00:40:59;;;;;;;6.20;2.92;;;19.80;99.90;;;;;;5012675;28;20123;-53
2023/08/16 00:43:25;;;;;;;4.68;2.63;;;19.80;99.90;;;;;;5012268;28;20030;-53
2023/08/16 00:45:51;;;;;;;4.10;2.35;;;19.80;99.90;;;;;;5030363;28;20021;-53
2023/08/16 00:48:19;;;;;;;5.95;2.67;;;19.70;99.90;;;;;;5012520;28;20026;-52
2023/08/16 00:50:46;;;;;;;3.85;2.40;;;19.70;99.90;;;;;;5030380;28;20033;-53
2023/08/16 00:53:13;;;;;;;6.32;2.45;;;19.70;99.90;;;;;;5030006;28;20124;-54
2023/08/16 00:55:39;;;;;;;5.43;2.70;;;19.70;99.90;;;;;;5030305;28;20486;-51
2023/08/16 00:58:05;;;;;;;3.50;2.50;;;19.70;99.90;;;;;;5029990;28;20037;-52
2023/08/16 01:00:31;;;;;;;5.05;2.65;;;19.60;99.90;;;;;;5030323;28;20432;-54
2023/08/16 01:02:57;;;;;;;4.10;2.28;;;19.60;99.90;;;;;;5012162;28;20051;-49
2023/08/16 01:05:23;;;;;;;6.22;3.00;;;19.60;99.90;;;;;;5012428;28;20470;-53
2023/08/16 01:07:49;;;;;;;5.47;2.50;;;19.60;99.90;;;;;;5012341;28;20034;-53
2023/08/16 01:10:15;;;;;;;5.90;2.75;;;19.50;99.90;;;;;;5030130;28;20030;-52
2023/08/16 01:12:52;;;;;;;4.43;2.47;;;19.50;99.90;;;;;;5012107;28;20033;-54
2023/08/16 01:15:24;;;;;;;4.28;2.63;;;19.40;99.90;;;;;;5012373;28;20037;-53
2023/08/16 01:17:52;;;;;;;4.85;2.30;;;19.40;99.90;;;;;;5030018;28;20474;-50
2023/08/16 01:20:19;;;;;;;7.28;2.70;;;19.40;99.90;;;;;;4996399;28;20456;-52
2023/08/16 01:22:56;;;;;;;4.82;2.10;;;19.30;99.90;;;;;;5033337;28;20029;-54
2023/08/16 01:25:23;;;;;;;3.97;2.30;;;19.30;99.90;;;;;;5016076;28;20060;-52
2023/08/16 01:27:51;;;;;;;4.38;2.17;;;19.30;99.90;;;;;;5015658;28;20500;-52
2023/08/16 01:30:20;;;;;;;5.80;2.70;;;19.30;99.90;;;;;;5033493;28;20049;-51
2023/08/16 01:32:47;;;;;;;7.95;2.92;;;19.20;99.90;;;;;;5015610;28;20037;-51
2023/08/16 01:35:13;;;;;;;6.20;2.65;;;19.20;99.90;;;;;;5015567;28;20464;-53
2023/08/16 01:37:40;;;;;;;6.13;2.50;;;19.10;99.90;;;;;;5033096;28;20032;-51
2023/08/16 01:40:08;;;;;;;10.10;3.40;;;19.20;99.90;;;;;;5015596;28;20040;-52
2023/08/16 01:42:43;;;;;;;5.30;3.08;;;19.20;99.90;;;;;;5033038;28;20456;-49
2023/08/16 01:45:09;;;;;;;4.78;2.40;;;19.10;99.90;;;;;;5015783;28;20037;-52
2023/08/16 01:47:37;;;;;;;5.50;2.35;;;19.10;99.90;;;;;;5015401;28;20026;-53
2023/08/16 01:50:03;;;;;;;7.10;2.78;;;19.10;99.90;;;;;;5015422;28;20029;-53
2023/08/16 01:52:29;;;;;;;4.47;2.60;;;19.10;99.90;;;;;;5015134;28;20406;-53
2023/08/16 01:54:55;;;;;;;4.68;2.80;;;19.10;99.90;;;;;;5015495;28;20036;-48
2023/08/16 01:57:20;;;;;;;5.07;2.63;;;19.10;99.90;;;;;;5033326;28;20032;-53
2023/08/16 01:59:46;;;;;;;6.05;2.95;;;19.10;99.90;;;;;;5015666;28;20493;-53
2023/08/16 02:02:12;;;;;;;5.53;2.40;;;19.10;99.90;;;;;;5015043;28;20445;-53
2023/08/16 02:04:38;;;;;;;4.57;2.50;;;19.00;99.90;;;;;;5032885;28;20493;-49
2023/08/16 02:07:03;;;;;;;5.15;2.90;;;19.00;99.90;;;;;;5014796;28;20099;-52
2023/08/16 02:09:30;;;;;;;4.43;2.88;;;19.00;99.90;;;;;;4998995;28;20405;-53
2023/08/16 02:11:55;;;;;;;5.15;2.40;;;18.90;99.90;;;;;;5015131;28;20029;-51
2023/08/16 02:14:21;;;;;;;6.22;2.72;;;18.90;99.90;;;;;;5032606;28;20033;-51
2023/08/16 02:16:47;;;;;;;5.50;2.40;;;18.90;99.90;;;;;;5014756;28;20029;-53
2023/08/16 02:19:14;;;;;;;8.10;3.00;;;18.80;99.90;;;;;;5014853;28;20033;-49
2023/08/16 02:21:40;;;;;;;4.15;2.90;;;18.80;99.90;;;;;;5032284;28;20600;-51
2023/08/16 02:24:07;;;;;;;6.00;2.78;;;18.80;99.90;;;;;;5014844;28;20124;-53
2023/08/16 02:26:33;;;;;;;6.15;2.92;;;18.70;99.90;;;;;;5014623;28;20026;-51
2023/08/16 02:28:58;;;;;;;5.38;3.08;;;18.70;99.90;;;;;;5014767;28;20036;-50
2023/08/16 02:31:24;;;;;;;5.88;2.70;;;18.60;99.90;;;;;;5032169;28;20028;-52
2023/08/16 02:33:50;;;;;;;5.38;3.00;;;18.60;99.90;;;;;;5013635;28;20056;-53
2023/08/16 02:36:16;;;;;;;6.20;3.35;;;18.60;99.90;;;;;;5032064;28;20083;-52
2023/08/16 02:38:41;;;;;;;6.90;3.03;;;18.60;99.90;;;;;;5014451;28;20033;-50
2023/08/16 02:41:07;;;;;;;4.97;2.88;;;18.60;99.90;;;;;;5032217;28;20036;-53
2023/08/16 02:43:33;;;;;;;6.80;3.25;;;18.60;99.90;;;;;;5014142;28;20080;-52
2023/08/16 02:45:58;;;;;;;7.03;3.03;;;18.60;99.90;;;;;;5014381;28;20124;-53
2023/08/16 02:48:24;;;;;;;5.43;2.78;;;18.60;99.90;;;;;;5014050;28;20029;-53
2023/08/16 02:50:49;;;;;;;4.65;2.65;;;18.60;99.90;;;;;;5014257;28;20438;-53
2023/08/16 02:53:16;;;;;;;4.63;2.72;;;18.60;99.90;;;;;;5031697;28;20040;-51
2023/08/16 02:55:42;;;;;;;4.05;2.60;;;18.60;99.90;;;;;;5014156;28;20398;-49
2023/08/16 02:58:07;;;;;;;4.25;2.55;;;18.60;99.90;;;;;;5013843;28;20026;-51
2023/08/16 03:00:35;;;;;;;5.40;2.58;;;18.60;99.90;;;;;;5014031;28;20504;-50
2023/08/16 03:03:01;;;;;;;5.95;2.50;;;18.60;99.90;;;;;;5031334;28;20026;-50
2023/08/16 03:05:26;;;;;;;4.47;2.40;;;18.60;99.90;;;;;;5013902;28;20067;-49
2023/08/16 03:07:52;;;;;;;6.05;2.67;;;18.60;99.90;;;;;;5013584;28;20041;-50
2023/08/16 03:10:18;;;;;;;3.60;2.63;;;18.60;99.90;;;;;;5013848;28;20029;-49
2023/08/16 03:12:44;;;;;;;4.70;2.60;;;18.60;99.90;;;;;;5013545;28;20061;-50
2023/08/16 03:15:09;;;;;;;4.53;2.60;;;18.70;99.90;;;;;;5013746;28;20029;-50
2023/08/16 03:17:35;;;;;;;4.70;2.40;;;18.60;99.90;;;;;;5013660;28;20044;-48
2023/08/16 03:20:01;;;;;;;5.25;2.72;;;18.70;99.90;;;;;;5013718;28;20029;-50
2023/08/16 03:22:28;;;;;;;4.82;2.90;;;18.70;99.90;;;;;;5013419;28;20414;-48
2023/08/16 03:24:53;;;;;;;4.22;2.22;;;18.70;99.90;;;;;;5013714;28;20034;-52
2023/08/16 03:27:20;;;;;;;6.47;3.13;;;18.70;99.90;;;;;;5013371;28;20057;-50
2023/08/16 03:29:46;;;;;;;5.45;3.50;;;18.70;99.90;;;;;;5013371;28;20064;-49
2023/08/16 03:32:12;;;;;;;8.98;3.45;;;18.70;99.90;;;;;;5013365;28;20128;-50
2023/08/16 03:34:37;;;;;;;6.25;3.00;;;18.70;99.90;;;;;;5013296;28;20043;-50
2023/08/16 03:37:03;;;;;;;4.90;2.90;;;18.80;99.90;;;;;;5013353;28;20044;-48
2023/08/16 03:39:29;;;;;;;8.15;2.80;;;18.70;99.90;;;;;;5013402;28;20435;-48
2023/08/16 03:41:55;;;;;;;5.88;2.53;;;18.70;99.90;;;;;;5013010;28;20513;-52
2023/08/16 03:44:20;;;;;;;6.78;2.58;;;18.70;99.90;;;;;;5013026;28;20030;-51
2023/08/16 03:46:46;;;;;;;6.75;2.60;;;18.80;99.90;;;;;;4996863;28;20075;-49
2023/08/16 03:49:12;;;;;;;4.95;2.53;;;18.80;99.90;;;;;;5013128;28;20108;-48
2023/08/16 03:51:39;;;;;;;4.40;2.50;;;18.80;99.90;;;;;;5013050;28;20026;-48
2023/08/16 03:54:05;;;;;;;5.05;2.90;;;18.80;99.90;;;;;;5013276;28;20035;-48
2023/08/16 03:56:31;;;;;;;6.13;2.95;;;18.80;99.90;;;;;;4996878;28;20025;-48
2023/08/16 03:58:56;;;;;;;8.15;3.45;;;18.80;99.90;;;;;;5031360;28;20025;-48
2023/08/16 04:01:22;;;;;;;6.03;3.03;;;18.90;99.90;;;;;;5013729;28;20052;-48
2023/08/16 04:03:48;;;;;;;6.20;3.60;;;18.90;99.90;;;;;;5031185;28;20060;-49
2023/08/16 04:06:14;;;;;;;4.40;3.13;;;18.90;99.90;;;;;;5013644;28;20025;-48
2023/08/16 04:08:39;;;;;;;5.80;3.08;;;18.90;99.90;;;;;;5032720;28;20398;-51
2023/08/16 04:11:06;;;;;;;5.55;3.03;;;18.90;99.90;;;;;;5015181;28;20032;-49
2023/08/16 04:13:32;;;;;;;8.60;3.60;;;19.00;99.90;;;;;;5032804;28;20032;-48
2023/08/16 04:15:58;;;;;;;6.25;3.63;;;19.00;99.90;;;;;;5013930;28;20033;-51
2023/08/16 04:18:25;;;;;;;6.57;3.17;;;19.00;99.90;;;;;;5014194;28;20041;-51
2023/08/16 04:20:53;;;;;;;7.75;3.28;;;19.00;99.90;;;;;;5012973;28;20109;-51
2023/08/16 04:23:19;;;;;;;5.88;3.17;;;19.00;99.90;;;;;;5030350;28;20030;-50
2023/08/16 04:25:46;;;;;;;7.50;3.10;;;19.00;99.90;;;;;;5012845;28;20022;-50
2023/08/16 04:28:11;;;;;;;8.60;3.72;;;19.00;99.90;;;;;;5012528;28;20026;-49
2023/08/16 04:30:37;;;;;;;6.00;3.08;;;19.00;99.90;;;;;;5012787;28;20450;-52
2023/08/16 04:33:03;;;;;;;6.10;3.45;;;19.00;99.90;;;;;;4996097;28;20390;-50
2023/08/16 04:35:28;;;;;;;7.70;3.10;;;19.00;99.90;;;;;;5012730;28;20025;-50
2023/08/16 04:37:54;;;;;;;7.60;2.72;;;19.00;99.90;;;;;;5012831;28;20461;-51
2023/08/16 04:40:21;;;;;;;9.00;3.42;;;18.90;99.90;;;;;;5012926;28;20521;-53
2023/08/16 04:42:46;;;;;;;7.00;2.92;;;18.90;99.90;;;;;;5012382;28;20060;-52
2023/08/16 04:45:12;;;;;;;5.20;2.70;;;18.90;99.90;;;;;;5012782;28;20299;-50
2023/08/16 04:47:38;;;;;;;4.55;2.80;;;18.80;99.90;;;;;;5012497;28;20026;-52
2023/08/16 04:50:06;;;;;;;7.72;3.30;;;18.90;99.90;;;;;;5012730;28;20034;-53
2023/08/16 04:52:34;;;;;;;8.25;3.05;;;18.80;99.90;;;;;;5012539;28;20049;-49
2023/08/16 04:55:05;;;;;;;6.32;2.83;;;18.90;99.90;;;;;;5012800;28;20061;-50
2023/08/16 04:57:31;;;;;;;7.38;3.13;;;18.80;99.90;;;;;;5016256;28;20030;-50
2023/08/16 04:59:56;;;;;;;8.32;4.15;;;18.90;99.90;;;;;;5016510;28;20052;-53
2023/08/16 05:02:22;;;;;;;6.28;3.10;;;18.90;99.90;;;;;;5016290;28;20033;-54
2023/08/16 05:04:48;;;;;;;7.85;3.13;;;18.80;99.90;;;;;;5016547;28;20456;-52
2023/08/16 05:07:14;;;;;;;11.20;4.55;;;18.80;99.90;;;;;;5016048;28;20466;-50
2023/08/16 05:09:41;;;;;;;12.88;5.05;;;18.80;99.90;;;;;;5016276;28;20029;-53
2023/08/16 05:12:07;;;;;;;12.10;4.85;;;18.80;99.90;;;;;;5033618;28;20108;-50
2023/08/16 05:14:32;;;;;;;12.35;6.50;;;18.80;99.90;;;;;;5033690;28;20389;-54
2023/08/16 05:16:58;;;;;;;17.25;6.90;;;18.80;99.90;;;;;;5015914;28;20160;-52
2023/08/16 05:19:24;;;;;;;13.80;6.53;;;18.90;99.90;;;;;;5015927;28;20033;-53
2023/08/16 05:21:50;;;;;;;12.68;5.85;;;18.90;99.90;;;;;;5015699;28;20041;-50
2023/08/16 05:24:16;;;;;;;10.85;4.82;;;18.80;99.90;;;;;;5033495;28;20033;-51
2023/08/16 05:26:41;;;;;;;10.70;5.03;;;18.80;99.90;;;;;;5033220;28;20030;-49
2023/08/16 05:29:07;;;;;;;8.18;4.13;;;18.80;99.90;;;;;;5033442;28;20026;-52
2023/08/16 05:31:32;;;;;;;11.07;4.25;;;18.80;99.90;;;;;;5033249;28;20030;-53
2023/08/16 05:33:58;;;;;;;9.98;4.20;;;18.80;99.90;;;;;;5033344;28;20383;-53
2023/08/16 05:36:29;;;;;;;8.73;3.88;;;18.80;99.90;;;;;;5033175;28;20087;-50
2023/08/16 05:38:55;;;;;;;8.52;4.13;;;18.90;99.90;;;;;;5033313;28;20080;-54
2023/08/16 05:41:20;;;;;;;6.72;4.10;;;18.90;99.90;;;;;;5032977;28;20029;-53
2023/08/16 05:43:46;;;;;;;8.40;3.45;;;19.00;99.90;;;;;;5033061;28;20036;-50
2023/08/16 05:46:11;;;;;;;5.63;3.28;;;19.00;99.90;;;;;;5015351;28;20029;-52
2023/08/16 05:48:37;;;;;;;6.93;3.50;;;19.00;99.90;;;;;;5033392;28;20517;-49
2023/08/16 05:51:02;;;;;;;5.90;3.78;;;18.90;99.90;;;;;;5033131;28;20025;-48
2023/08/16 05:53:28;;;;;;;8.07;3.53;;;18.90;99.90;;;;;;5032759;28;20037;-49
2023/08/16 05:55:54;;;;;;;6.47;3.00;;;18.90;99.90;;;;;;5032973;28;20164;-49
2023/08/16 05:58:19;;;;;;;7.35;3.45;;;18.90;99.90;;;;;;5032772;28;20120;-53
2023/08/16 06:00:46;;;;;;;6.93;3.70;;;18.90;99.90;;;;;;5032724;28;20030;-50
2023/08/16 06:03:13;;;;;;;6.68;3.45;;;18.90;99.90;;;;;;5032757;28;20410;-47
2023/08/16 06:05:39;;;;;;;7.30;3.83;;;18.90;99.90;;;;;;5015211;28;20056;-48
2023/08/16 06:08:05;;;;;;;8.13;4.40;;;19.00;99.90;;;;;;5031365;28;20402;-50
2023/08/16 06:10:30;;;;;;;8.25;4.00;;;19.00;99.90;;;;;;5032755;28;20029;-48
2023/08/16 06:12:56;;;;;;;5.90;3.80;;;19.10;99.90;;;;;;5032491;28;20052;-48
2023/08/16 06:15:22;;;;;;;7.20;3.90;;;19.10;99.90;;;;;;5032625;28;20027;-48
2023/08/16 06:17:48;;;;;;;5.90;3.25;;;19.20;99.90;;;;;;5032715;28;20035;-49
2023/08/16 06:20:14;;;;;;;6.70;3.70;;;19.20;99.90;;;;;;5014756;28;20041;-50
2023/08/16 06:22:39;;;;;;;7.28;3.78;;;19.30;99.90;;;;;;5014337;28;20037;-48
2023/08/16 06:25:07;;;;;;;8.95;4.20;;;19.40;99.90;;;;;;5032319;28;20021;-47
2023/08/16 06:27:33;;;;;;;7.95;4.35;;;19.50;99.90;;;;;;5032397;28;20056;-50
2023/08/16 06:29:59;;;;;;;7.47;3.80;;;19.50;99.90;;;;;;5032556;28;20033;-48
2023/08/16 06:32:25;;;;;;;11.07;4.05;;;19.50;99.90;;;;;;5032222;28;20044;-48
2023/08/16 06:34:51;;;;;;;9.00;4.80;;;19.60;99.90;;;;;;5032292;28;20033;-49
2023/08/16 06:37:16;;;;;;;6.53;4.00;;;19.60;99.90;;;;;;5032096;28;20112;-49
2023/08/16 06:39:42;;;;;;;8.95;4.32;;;19.70;99.90;;;;;;5032108;28;20520;-48
2023/08/16 06:42:09;;;;;;;6.00;3.80;;;19.70;99.90;;;;;;5031962;28;20103;-48
2023/08/16 06:44:35;;;;;;;6.97;3.88;;;19.70;99.90;;;;;;5014256;28;20053;-48
2023/08/16 06:47:01;;;;;;;6.65;3.70;;;19.70;99.90;;;;;;5031963;28;20052;-50
2023/08/16 06:49:27;;;;;;;7.85;3.40;;;19.70;99.90;;;;;;5031990;28;20490;-50
2023/08/16 06:51:53;;;;;;;7.80;4.10;;;19.80;99.90;;;;;;5032191;28;20029;-50
2023/08/16 06:54:18;;;;;;;7.50;4.30;;;19.80;99.90;;;;;;5031570;28;20031;-48
2023/08/16 06:56:44;;;;;;;6.88;3.45;;;19.80;99.90;;;;;;5031655;28;20041;-50
2023/08/16 06:59:10;;;;;;;10.32;3.95;;;19.80;99.90;;;;;;5031758;28;20033;-49
2023/08/16 07:01:36;;;;;;;7.13;3.78;;;19.80;99.90;;;;;;5031750;28;20059;-52
2023/08/16 07:04:02;;;;;;;8.23;3.95;;;19.90;99.90;;;;;;5031524;28;20079;-50
2023/08/16 07:06:31;;;;;;;9.68;4.90;;;20.00;99.90;;;;;;5031446;28;20030;-49
2023/08/16 07:08:58;;;;;;;8.93;4.55;;;20.10;99.90;;;;;;5031536;28;20029;-50
2023/08/16 07:11:24;;;;;;;6.03;3.58;;;20.10;99.90;;;;;;5031534;28;20061;-48
2023/08/16 07:13:51;;;;;;;7.40;3.60;;;20.10;99.90;;;;;;5031589;28;20082;-47
2023/08/16 07:16:17;;;;;;;8.63;4.30;;;20.00;99.90;;;;;;5031542;28;20029;-50
2023/08/16 07:18:43;;;;;;;7.32;4.10;;;20.10;99.90;;;;;;5031150;28;20030;-50
2023/08/16 07:21:09;;;;;;;7.38;3.88;;;20.10;99.90;;;;;;5031403;28;20041;-48
2023/08/16 07:23:35;;;;;;;6.95;3.63;;;20.10;99.90;;;;;;5030923;28;20025;-49
2023/08/16 07:26:02;;;;;;;7.30;3.70;;;20.10;99.90;;;;;;5031491;28;20367;-47
2023/08/16 07:28:27;;;;;;;6.78;3.38;;;20.10;99.90;;;;;;5031227;28;20493;-48
2023/08/16 07:30:54;;;;;;;6.32;3.28;;;20.10;99.90;;;;;;5031195;28;20025;-51
2023/08/16 07:33:21;;;;;;;6.90;3.53;;;20.10;99.90;;;;;;5030912;28;20029;-49
2023/08/16 07:35:47;;;;;;;8.90;3.30;;;20.20;99.90;;;;;;5031092;28;20033;-50
2023/08/16 07:38:13;;;;;;;6.70;3.03;;;20.20;99.90;;;;;;5030797;28;20040;-49
2023/08/16 07:40:38;;;;;;;6.18;3.33;;;20.30;99.90;;;;;;5031172;28;20037;-48
2023/08/16 07:43:04;;;;;;;6.47;3.70;;;20.30;99.90;;;;;;5030691;28;20029;-50
2023/08/16 07:45:30;;;;;;;5.97;2.35;;;20.40;99.90;;;;;;5031147;28;20478;-52
2023/08/16 07:47:55;;;;;;;6.22;2.58;;;20.40;99.90;;;;;;5030744;28;20112;-51
2023/08/16 07:50:21;;;;;;;5.40;2.03;;;20.40;99.90;;;;;;5030960;28;20083;-50
2023/08/16 07:52:48;;;;;;;6.15;2.30;;;20.40;99.90;;;;;;5012978;28;20037;-48
2023/08/16 07:55:13;;;;;;;4.05;1.95;;;20.50;99.90;;;;;;5030960;28;20084;-48
2023/08/16 07:57:39;;;;;;;2.72;1.63;;;20.50;99.90;;;;;;5030916;28;20508;-51
2023/08/16 08:00:07;;;;;;;2.92;2.00;;;20.50;99.90;;;;;;5030863;28;20029;-49
2023/08/16 08:02:40;;;;;;;4.85;1.90;;;20.60;99.90;;;;;;5030617;28;20049;-50
2023/08/16 08:05:06;;;;;;;4.00;2.25;;;20.70;99.90;;;;;;5030878;28;20470;-50
2023/08/16 08:07:32;;;;;;;4.30;1.90;;;20.80;99.90;;;;;;5030464;28;20022;-50
2023/08/16 08:09:58;;;;;;;3.90;1.92;;;20.80;99.90;;;;;;5030993;28;20462;-51
2023/08/16 08:12:24;;;;;;;5.65;2.20;;;20.80;99.90;;;;;;5030612;28;20040;-52
2023/08/16 08:14:49;;;;;;;4.85;2.20;;;20.90;99.90;;;;;;5030972;28;20029;-48
2023/08/16 08:17:15;;;;;;;3.13;2.08;;;20.90;99.90;;;;;;5030886;28;20026;-50
2023/08/16 08:19:41;;;;;;;4.15;2.25;;;20.80;99.90;;;;;;5030933;28;20037;-51
2023/08/16 08:22:07;;;;;;;4.93;2.60;;;20.80;99.90;;;;;;5030576;28;20032;-51
2023/08/16 08:24:33;;;;;;;3.97;2.22;;;20.90;99.90;;;;;;5030666;28;20037;-51
2023/08/16 08:26:59;;;;;;;5.43;2.20;;;20.90;99.90;;;;;;5030471;28;20028;-53
2023/08/16 08:29:25;;;;;;;6.60;2.15;;;20.90;99.90;;;;;;5030722;28;20032;-52
2023/08/16 08:31:53;;;;;;;3.78;2.08;;;21.00;99.90;;;;;;5033517;28;20039;-51
2023/08/16 08:34:19;;;;;;;4.67;1.87;;;21.10;99.90;;;;;;5034519;28;20025;-51
2023/08/16 08:36:44;;;;;;;4.00;1.92;;;21.20;99.90;;;;;;5034289;28;20032;-50
2023/08/16 08:39:10;;;;;;;2.30;1.50;;;21.20;99.90;;;;;;5034544;28;20059;-48
2023/08/16 08:41:37;;;;;;;4.28;1.50;;;21.30;99.90;;;;;;5034148;28;20029;-51
2023/08/16 08:44:04;;;;;;;3.03;1.75;;;21.40;99.90;;;;;;5034180;28;20033;-50
2023/08/16 08:46:30;;;;;;;3.90;1.67;;;21.40;99.90;;;;;;5034154;28;20030;-52
2023/08/16 08:49:03;;;;;;;2.70;1.60;;;21.30;99.90;;;;;;5034217;28;20040;-52
2023/08/16 08:51:30;;;;;;;2.88;1.65;;;21.40;99.90;;;;;;5034148;28;20060;-51
2023/08/16 08:53:56;;;;;;;3.10;1.80;;;21.30;99.90;;;;;;5034226;28;20478;-50
2023/08/16 08:56:23;;;;;;;2.45;1.45;;;21.20;99.90;;;;;;5034000;28;20033;-51
2023/08/16 08:58:50;;;;;;;3.75;1.80;;;21.30;99.90;;;;;;5034134;28;20037;-48
2023/08/16 09:01:17;;;;;;;4.32;1.90;;;21.40;99.90;;;;;;5033948;28;20112;-49
2023/08/16 09:03:44;;;;;;;3.30;1.42;;;21.70;99.90;;;;;;5033760;28;20041;-53
2023/08/16 09:06:11;;;;;;;4.80;1.65;;;21.80;99.90;;;;;;5033761;28;20498;-52
2023/08/16 09:08:37;;;;;;;3.40;1.85;;;22.00;99.90;;;;;;5033802;28;20025;-52
2023/08/16 09:11:03;;;;;;;5.53;1.80;;;22.10;99.90;;;;;;5033944;28;20474;-53
2023/08/16 09:13:30;;;;;;;3.53;2.00;;;22.30;99.90;;;;;;5033660;28;20393;-51
2023/08/16 09:15:56;;;;;;;3.80;1.70;;;22.50;99.90;;;;;;5033670;28;20029;-53
2023/08/16 09:18:22;;;;;;;4.75;2.17;;;22.50;99.90;;;;;;5033604;28;20040;-49
2023/08/16 09:20:49;;;;;;;3.88;1.92;;;22.40;99.90;;;;;;5033654;28;20075;-53
2023/08/16 09:23:17;;;;;;;3.90;1.98;;;22.30;99.90;;;;;;5033433;28;20037;-49
2023/08/16 09:25:44;;;;;;;3.67;1.95;;;22.10;99.90;;;;;;5015848;28;20174;-49
2023/08/16 09:28:14;;;;;;;4.53;2.00;;;22.10;99.90;;;;;;5033470;28;20033;-49
2023/08/16 09:30:43;;;;;;;4.30;2.10;;;22.00;99.90;;;;;;5015680;28;20025;-48
2023/08/16 09:33:12;;;;;;;3.42;1.98;;;22.10;99.90;;;;;;5033576;28;20315;-49
2023/08/16 09:35:48;;;;;;;3.55;2.10;;;22.00;99.90;;;;;;5033903;28;20041;-49
2023/08/16 09:38:14;;;;;;;3.42;1.92;;;21.90;99.90;;;;;;5033580;28;20215;-48
2023/08/16 09:40:50;;;;;;;4.53;1.90;;;21.90;99.90;;;;;;5034007;28;20037;-50
2023/08/16 09:43:16;;;;;;;3.47;2.05;;;21.90;99.90;;;;;;5033741;28;20401;-49
2023/08/16 09:45:43;;;;;;;4.32;2.17;;;22.00;99.90;;;;;;5034843;28;20127;-49
2023/08/16 09:48:09;;;;;;;4.85;2.03;;;22.00;99.90;;;;;;5035442;28;20109;-52
2023/08/16 09:50:35;;;;;;;4.82;2.20;;;21.90;99.90;;;;;;5035354;28;20061;-51
2023/08/16 09:53:05;;;;;;;3.55;2.00;;;21.90;99.90;;;;;;5034932;28;20461;-48
2023/08/16 09:55:32;;;;;;;5.63;2.40;;;21.90;99.90;;;;;;5033922;28;20044;-52
2023/08/16 09:57:59;;;;;;;3.83;2.60;;;21.80;99.90;;;;;;5032770;28;20037;-48
2023/08/16 10:00:29;;;;;;;4.85;2.15;;;21.70;99.90;;;;;;5032938;28;20374;-53
2023/08/16 10:02:56;;;;;;;4.97;2.45;;;21.60;99.90;;;;;;5032611;28;20037;-52
2023/08/16 10:05:24;;;;;;;5.13;2.08;;;21.60;99.90;;;;;;5032876;28;20033;-52
2023/08/16 10:07:50;;;;;;;4.40;1.90;;;21.60;99.90;;;;;;5032555;28;20045;-49
2023/08/16 10:10:16;;;;;;;3.08;1.85;;;21.50;99.90;;;;;;5032682;28;20033;-51
2023/08/16 10:12:43;;;;;;;4.57;2.30;;;21.50;99.90;;;;;;5032471;28;20026;-53
2023/08/16 10:15:10;;;;;;;4.85;2.22;;;21.50;99.90;;;;;;5032577;28;20057;-51
2023/08/16 10:17:40;;;;;;;2.72;1.80;;;21.50;99.90;;;;;;5032590;28;20394;-50
2023/08/16 10:20:23;;;;;;;4.45;2.35;;;21.50;99.90;;;;;;5032733;28;20040;-52
2023/08/16 10:22:56;;;;;;;4.25;2.17;;;21.50;99.90;;;;;;5032112;28;20448;-49
2023/08/16 10:25:25;;;;;;;4.35;2.53;;;21.50;99.90;;;;;;5014762;28;20025;-53
2023/08/16 10:27:55;;;;;;;3.63;2.13;;;21.50;99.90;;;;;;5032484;28;20040;-53
2023/08/16 10:30:22;;;;;;;5.10;2.58;;;21.60;99.90;;;;;;5032484;28;20120;-52
2023/08/16 10:32:53;;;;;;;5.00;3.38;;;21.50;99.90;;;;;;5032136;28;20079;-53
2023/08/16 10:35:19;;;;;;;5.00;2.85;;;21.50;99.90;;;;;;5032241;28;20072;-53
2023/08/16 10:37:46;;;;;;;5.78;3.03;;;21.50;99.90;;;;;;5032177;28;20065;-53
2023/08/16 10:40:21;;;;;;;4.35;2.75;;;21.40;99.90;;;;;;5032302;28;20040;-53
2023/08/16 10:43:04;;;;;;;4.68;2.80;;;21.50;99.90;;;;;;5031970;28;20072;-53
2023/08/16 10:45:34;;;;;;;6.28;3.80;;;21.70;99.90;;;;;;5032176;28;20068;-54
2023/08/16 10:48:09;;;;;;;7.20;3.10;;;21.80;99.90;;;;;;5031919;28;20041;-54
2023/08/16 10:50:35;;;;;;;7.38;3.65;;;22.00;99.90;;;;;;5031895;28;20429;-53
2023/08/16 10:53:01;;;;;;;7.28;4.15;;;22.30;99.90;;;;;;5031200;28;20029;-51
2023/08/16 10:55:27;;;;;;;7.45;3.42;;;22.30;99.90;;;;;;5031900;28;20041;-54
2023/08/16 10:57:54;;;;;;;8.13;4.50;;;22.30;99.90;;;;;;5031729;28;20108;-51
2023/08/16 11:00:27;;;;;;;7.95;4.35;;;22.40;99.90;;;;;;5031766;28;20395;-53
2023/08/16 11:02:54;;;;;;;11.73;5.07;;;22.40;99.90;;;;;;5031601;28;20094;-54
2023/08/16 11:05:21;;;;;;;12.02;5.10;;;22.40;99.90;;;;;;5031880;28;20379;-53
2023/08/16 11:07:47;;;;;;;7.78;4.20;;;22.30;99.90;;;;;;5031629;28;20033;-51
2023/08/16 11:10:13;;;;;;;7.22;4.50;;;22.30;99.90;;;;;;5031767;28;20064;-51
2023/08/16 11:12:39;;;;;;;8.85;3.80;;;22.40;99.90;;;;;;5031482;28;20029;-53
2023/08/16 11:15:06;;;;;;;6.90;3.80;;;22.40;99.90;;;;;;5031699;28;20386;-50
2023/08/16 11:17:32;;;;;;;7.93;4.40;;;22.50;99.90;;;;;;5031481;28;20492;-53
2023/08/16 11:20:00;;;;;;;10.05;5.22;;;22.50;99.90;;;;;;5031650;28;20315;-53
2023/08/16 11:22:26;;;;;;;8.73;4.57;;;22.60;99.90;;;;;;5031393;28;20456;-51
2023/08/16 11:24:52;;;;;;;9.32;5.00;;;22.50;99.90;;;;;;5031764;28;20033;-54
2023/08/16 11:27:23;;;;;;;9.68;5.30;;;22.50;99.90;;;;;;5031478;28;20049;-50
2023/08/16 11:29:50;;;;;;;12.95;6.45;;;22.50;99.90;;;;;;5031732;28;20029;-54
2023/08/16 11:32:37;;;;;;;12.55;6.15;;;22.60;99.90;;;;;;5031329;28;20486;-53
2023/08/16 11:35:11;;;;;;;9.93;5.18;;;22.60;99.90;;;;;;5031068;28;20041;-54
2023/08/16 11:37:41;;;;;;;9.70;4.75;;;22.60;99.90;;;;;;5013381;28;20398;-53
2023/08/16 11:40:11;;;;;;;11.38;5.63;;;22.50;99.90;;;;;;5031349;28;20067;-53
2023/08/16 11:42:37;;;;;;;10.35;5.60;;;22.50;99.90;;;;;;5031173;28;20037;-53
2023/08/16 11:45:24;;;;;;;11.73;5.22;;;22.40;99.90;;;;;;5031122;28;20413;-53
2023/08/16 11:47:54;;;;;;;15.00;6.30;;;22.30;99.90;;;;;;5030913;28;20397;-54
2023/08/16 11:50:20;;;;;;;9.80;5.20;;;22.30;99.90;;;;;;5031136;28;20037;-51
2023/08/16 11:52:56;;;;;;;13.10;6.05;;;22.40;99.90;;;;;;5030899;28;20033;-53
2023/08/16 11:55:22;;;;;;;13.05;6.22;;;22.40;99.90;;;;;;5031134;28;20037;-52
2023/08/16 11:57:48;;;;;;;14.13;6.80;;;22.40;99.90;;;;;;5030865;28;20092;-53
2023/08/16 12:00:26;;;;;;;16.08;6.70;;;22.40;99.90;;;;;;5030845;28;20039;-49
2023/08/16 12:02:51;;;;;;;16.07;6.83;;;22.30;99.90;;;;;;5030501;28;20041;-53
2023/08/16 12:05:17;;;;;;;14.75;6.78;;;22.30;99.90;;;;;;5030771;28;20032;-53
2023/08/16 12:07:48;;;;;;;17.23;8.00;;;22.30;99.90;;;;;;5030444;28;20029;-53
2023/08/16 12:10:27;;;;;;;16.45;7.43;;;22.20;99.90;;;;;;5012973;28;20037;-50
2023/08/16 12:12:57;;;;;;;15.93;7.60;;;22.30;99.90;;;;;;5030431;28;20036;-52
2023/08/16 12:15:23;;;;;;;17.83;8.93;;;22.30;99.90;;;;;;5030625;28;20033;-51
2023/08/16 12:17:55;;;;;;;17.55;8.20;;;22.30;99.90;;;;;;5030486;28;20128;-48
2023/08/16 12:20:24;;;;;;;15.82;7.97;;;22.40;99.90;;;;;;5030762;28;20060;-52
2023/08/16 12:22:51;;;;;;;18.08;8.60;;;22.50;99.90;;;;;;5030379;28;20029;-51
2023/08/16 12:25:17;;;;;;;17.80;8.13;;;22.60;99.90;;;;;;5030613;28;20025;-51
2023/08/16 12:27:42;;;;;;;12.82;6.70;;;22.60;99.90;;;;;;5030336;28;20497;-50
2023/08/16 12:30:08;;;;;;;17.85;8.07;;;22.70;99.90;;;;;;5030473;28;20029;-49
2023/08/16 12:32:34;;;;;;;14.48;7.90;;;22.60;99.90;;;;;;5030221;28;20040;-53
2023/08/16 12:34:59;;;;;;;12.60;7.20;;;22.70;99.90;;;;;;5030486;28;20041;-53
2023/08/16 12:37:25;;;;;;;16.58;8.40;;;22.70;99.90;;;;;;5030337;28;20044;-53
2023/08/16 12:39:50;;;;;;;13.95;7.25;;;22.60;99.90;;;;;;5030495;28;20029;-50
2023/08/16 12:42:16;;;;;;;13.88;7.43;;;22.60;99.90;;;;;;5030169;28;22008;-49
2023/08/16 12:44:42;;;;;;;13.23;7.07;;;22.50;99.90;;;;;;5030354;28;20025;-53